createdAt,value
2022-11-23T00:01:21.498Z,33.33
2022-11-23T00:06:27.629Z,31.93
2022-11-23T00:11:35.879Z,33.00
2022-11-23T00:16:41.439Z,34.03
2022-11-23T00:21:46.916Z,32.40
2022-11-23T00:26:52.316Z,34.67
2022-11-23T00:31:57.764Z,35.63
2022-11-23T00:37:03.215Z,33.80
2022-11-23T00:42:08.836Z,31.17
2022-11-23T00:47:14.302Z,33.30
2022-11-23T00:52:19.891Z,35.10
2022-11-23T00:57:25.320Z,33.70
2022-11-23T01:02:31.761Z,32.87
2022-11-23T01:07:37.961Z,31.00
2022-11-23T01:12:43.365Z,36.20
2022-11-23T01:17:48.757Z,33.20
2022-11-23T01:22:54.310Z,33.30
2022-11-23T01:27:59.717Z,34.60
2022-11-23T01:33:05.836Z,34.37
2022-11-23T01:38:16.659Z,33.70
2022-11-23T01:43:20.288Z,31.70
2022-11-23T01:48:31.338Z,32.23
2022-11-23T01:53:39.327Z,29.97
2022-11-23T01:58:48.033Z,30.47
2022-11-23T02:03:55.192Z,33.33
2022-11-23T02:09:01.019Z,33.17
2022-11-23T02:14:06.611Z,32.30
2022-11-23T02:19:39.337Z,34.33
2022-11-23T02:24:47.850Z,34.10
2022-11-23T02:29:55.337Z,34.07
2022-11-23T02:35:00.797Z,35.47
2022-11-23T02:40:09.346Z,34.70
2022-11-23T02:45:37.462Z,34.93
2022-11-23T02:50:43.689Z,34.63
2022-11-23T02:55:49.139Z,36.87
2022-11-23T03:00:55.548Z,37.27
2022-11-23T03:06:00.964Z,36.17
2022-11-23T03:11:06.757Z,36.00
2022-11-23T03:16:13.025Z,36.80
2022-11-23T03:21:19.227Z,36.47
2022-11-23T03:26:25.345Z,34.63
2022-11-23T03:31:32.488Z,35.60
2022-11-23T03:36:38.445Z,35.40
2022-11-23T03:41:43.833Z,33.03
2022-11-23T03:46:50.724Z,35.17
2022-11-23T03:51:56.186Z,36.47
2022-11-23T03:57:01.742Z,34.10
2022-11-23T04:02:08.238Z,35.47
2022-11-23T04:07:15.457Z,34.27
2022-11-23T04:12:22.814Z,32.03
2022-11-23T04:17:28.271Z,32.67
2022-11-23T04:22:34.366Z,33.43
2022-11-23T04:27:40.132Z,33.23
2022-11-23T04:32:47.208Z,35.17
2022-11-23T04:37:52.856Z,34.50
2022-11-23T04:43:01.753Z,33.73
2022-11-23T04:48:09.328Z,34.67
2022-11-23T04:53:15.620Z,31.67
2022-11-23T04:58:22.721Z,34.60
2022-11-23T05:03:31.167Z,33.27
2022-11-23T05:08:39.085Z,31.47
2022-11-23T05:13:52.829Z,33.43
2022-11-23T05:18:59.722Z,34.93
2022-11-23T05:24:06.205Z,35.00
2022-11-23T05:29:11.925Z,35.97
2022-11-23T05:34:17.560Z,35.43
2022-11-23T05:39:23.826Z,35.40
2022-11-23T05:44:30.386Z,34.43
2022-11-23T05:49:36.516Z,36.03
2022-11-23T05:54:42.478Z,33.97
2022-11-23T05:59:50.065Z,34.80
2022-11-23T06:04:57.135Z,33.33
2022-11-23T06:10:06.037Z,32.43
2022-11-23T06:15:13.032Z,33.10
2022-11-23T06:20:18.863Z,33.07
2022-11-23T06:25:26.074Z,32.53
2022-11-23T06:30:38.942Z,31.80
2022-11-23T06:35:46.514Z,30.40
2022-11-23T06:40:52.343Z,26.60
2022-11-23T06:45:58.555Z,31.43
2022-11-23T06:51:06.069Z,32.63
2022-11-23T06:56:13.163Z,30.43
2022-11-23T07:01:18.775Z,32.17
2022-11-23T07:06:25.962Z,31.97
2022-11-23T07:11:33.076Z,30.97
2022-11-23T07:16:38.810Z,33.97
2022-11-23T07:21:45.741Z,33.20
2022-11-23T07:26:52.151Z,32.50
2022-11-23T07:31:57.860Z,33.40
2022-11-23T07:37:04.734Z,33.73
2022-11-23T07:42:31.770Z,34.27
2022-11-23T07:47:18.284Z,34.83
2022-11-23T07:52:23.891Z,31.57
2022-11-23T07:57:29.854Z,31.20
2022-11-23T08:02:35.346Z,31.80
2022-11-23T08:07:40.912Z,32.10
2022-11-23T08:12:46.465Z,31.30
2022-11-23T08:17:58.495Z,30.97
2022-11-23T08:23:03.908Z,30.93
2022-11-23T08:28:09.546Z,29.03
2022-11-23T08:33:15.950Z,29.07
2022-11-23T08:38:21.351Z,27.97
2022-11-23T08:43:27.078Z,29.53
2022-11-23T08:48:32.566Z,27.37
2022-11-23T08:53:38.378Z,27.87
2022-11-23T08:58:43.893Z,29.07
2022-11-23T09:03:49.295Z,27.13
2022-11-23T09:08:54.748Z,27.87
2022-11-23T09:14:00.466Z,27.63
2022-11-23T09:19:07.413Z,26.23
2022-11-23T09:24:13.706Z,25.37
2022-11-23T09:29:19.125Z,25.27
2022-11-23T09:34:27.021Z,25.13
2022-11-23T09:39:32.447Z,23.90
2022-11-23T09:44:51.190Z,24.90
2022-11-23T09:50:11.587Z,25.77
2022-11-23T09:55:44.176Z,25.23
2022-11-23T10:00:52.599Z,26.67
2022-11-23T10:06:09.944Z,25.97
2022-11-23T10:11:40.751Z,23.13
2022-11-23T10:16:49.221Z,23.67
2022-11-23T10:22:15.555Z,23.83
2022-11-23T10:27:24.014Z,24.10
2022-11-23T10:32:38.436Z,26.17
2022-11-23T10:37:44.273Z,24.83
2022-11-23T10:42:58.677Z,24.53
2022-11-23T10:48:04.157Z,24.33
2022-11-23T10:53:22.440Z,25.67
2022-11-23T10:58:31.481Z,24.13
2022-11-23T11:03:36.879Z,24.77
2022-11-23T11:08:54.653Z,23.67
2022-11-23T11:14:09.196Z,24.17
2022-11-23T11:19:32.181Z,24.87
2022-11-23T11:24:47.722Z,26.87
2022-11-23T11:30:00.032Z,24.17
2022-11-23T11:35:29.817Z,25.03
2022-11-23T11:40:47.340Z,23.67
2022-11-23T11:46:27.378Z,23.97
2022-11-23T11:51:30.667Z,22.67
2022-11-23T11:56:47.276Z,22.70
2022-11-23T12:01:55.926Z,22.20
2022-11-23T12:07:07.033Z,22.97
2022-11-23T12:12:15.934Z,22.83
2022-11-23T12:17:33.853Z,22.90
2022-11-23T12:23:00.658Z,22.10
2022-11-23T12:28:25.394Z,24.67
2022-11-23T12:33:45.772Z,23.83
2022-11-23T12:39:02.810Z,24.87
2022-11-23T12:44:26.573Z,25.40
2022-11-23T12:49:46.933Z,26.70
2022-11-23T12:55:15.091Z,25.43
2022-11-23T13:00:24.243Z,25.10
2022-11-23T13:05:58.322Z,25.70
2022-11-23T13:11:18.669Z,24.07
2022-11-23T13:16:27.240Z,27.87
2022-11-23T13:21:45.060Z,27.33
2022-11-23T13:27:10.105Z,28.27
2022-11-23T13:32:43.181Z,26.53
2022-11-23T13:38:00.929Z,26.40
2022-11-23T13:43:31.393Z,29.30
2022-11-23T13:48:57.172Z,27.63
2022-11-23T13:54:04.445Z,27.20
2022-11-23T13:59:25.433Z,28.10
2022-11-23T14:04:34.082Z,29.50
2022-11-23T14:10:05.315Z,29.03
2022-11-23T14:15:25.756Z,28.70
2022-11-23T14:21:01.886Z,29.53
2022-11-23T14:26:35.982Z,26.83
2022-11-23T14:31:59.680Z,29.10
2022-11-23T14:37:31.203Z,28.50
2022-11-23T14:42:39.641Z,27.33
2022-11-23T14:47:45.027Z,27.43
2022-11-23T14:52:52.575Z,27.67
2022-11-23T14:58:03.593Z,26.93
2022-11-23T15:03:49.249Z,24.47
2022-11-23T15:08:33.687Z,27.03
2022-11-23T15:13:48.070Z,26.90
2022-11-23T15:18:53.469Z,25.47
2022-11-23T15:24:00.542Z,26.67
2022-11-23T15:29:06.062Z,25.37
2022-11-23T15:34:17.484Z,27.23
2022-11-23T15:39:24.506Z,27.80
2022-11-23T15:44:33.447Z,26.90
2022-11-23T15:49:40.508Z,25.80
2022-11-23T15:54:46.850Z,28.67
2022-11-23T15:59:58.103Z,28.40
2022-11-23T16:05:25.475Z,28.23
2022-11-23T16:10:35.093Z,26.17
2022-11-23T16:15:43.699Z,26.90
2022-11-23T16:20:54.794Z,28.00
2022-11-23T16:26:06.201Z,26.60
2022-11-23T16:31:20.369Z,26.57
2022-11-23T16:36:30.180Z,26.53
2022-11-23T16:41:36.500Z,27.07
2022-11-23T16:46:43.942Z,25.33
2022-11-23T16:51:57.166Z,29.63
2022-11-23T16:57:02.090Z,31.10
2022-11-23T17:02:10.564Z,28.57
2022-11-23T17:07:17.066Z,27.37
2022-11-23T17:12:22.706Z,25.63
2022-11-23T17:17:30.043Z,25.60
2022-11-23T17:22:35.431Z,25.40
2022-11-23T17:27:43.912Z,25.60
2022-11-23T17:32:50.228Z,23.83
2022-11-23T17:37:56.043Z,22.77
2022-11-23T17:43:01.518Z,22.47
2022-11-23T17:48:07.240Z,24.50
2022-11-23T17:53:12.650Z,25.37
2022-11-23T17:58:18.133Z,23.50
2022-11-23T18:03:23.680Z,24.80
2022-11-23T18:08:29.053Z,24.67
2022-11-23T18:13:34.474Z,25.03
2022-11-23T18:18:40.505Z,26.53
2022-11-23T18:23:46.362Z,26.37
2022-11-23T18:28:52.492Z,23.33
2022-11-23T18:33:57.891Z,26.87
2022-11-23T18:39:03.685Z,25.20
2022-11-23T18:44:09.093Z,26.17
2022-11-23T18:49:14.513Z,26.43
2022-11-23T18:54:19.973Z,24.97
2022-11-23T18:59:56.207Z,23.53
2022-11-23T19:04:34.424Z,22.70
2022-11-23T19:09:39.901Z,23.83
2022-11-23T19:14:46.947Z,22.07
2022-11-23T19:19:52.358Z,24.50
2022-11-23T19:24:57.968Z,23.13
2022-11-23T19:30:09.249Z,24.27
2022-11-23T19:35:15.239Z,22.10
2022-11-23T19:40:20.728Z,23.90
2022-11-23T19:45:26.131Z,22.87
2022-11-23T19:50:31.542Z,21.73
2022-11-23T19:55:37.731Z,22.37
2022-11-23T20:00:47.203Z,21.47
2022-11-23T20:06:00.273Z,22.20
2022-11-23T20:11:13.916Z,22.50
2022-11-23T20:16:21.341Z,23.33
2022-11-23T20:21:28.279Z,22.43
2022-11-23T20:26:36.221Z,24.00
2022-11-23T20:31:41.944Z,21.37
2022-11-23T20:36:47.593Z,22.33
2022-11-23T20:41:53.172Z,20.57
2022-11-23T20:47:02.948Z,22.80
2022-11-23T20:52:06.239Z,22.47
2022-11-23T20:57:11.694Z,23.40
2022-11-23T21:02:17.493Z,24.27
2022-11-23T21:07:23.231Z,24.73
2022-11-23T21:12:50.474Z,27.07
2022-11-23T21:17:54.193Z,25.97
2022-11-23T21:22:59.606Z,25.20
2022-11-23T21:28:05.202Z,25.47
2022-11-23T21:33:11.314Z,24.77
2022-11-23T21:38:16.732Z,24.10
2022-11-23T21:43:22.150Z,23.93
2022-11-23T21:48:28.021Z,23.27
2022-11-23T21:53:34.555Z,23.13
2022-11-23T21:58:41.238Z,22.20
2022-11-23T22:03:52.966Z,24.57
2022-11-23T22:09:01.364Z,21.90
2022-11-23T22:14:12.470Z,24.13
2022-11-23T22:19:19.100Z,22.87
2022-11-23T22:24:24.702Z,24.73
2022-11-23T22:29:30.239Z,24.60
2022-11-23T22:34:36.066Z,24.07
2022-11-23T22:39:41.744Z,22.80
2022-11-23T22:44:47.200Z,24.07
2022-11-23T22:49:52.735Z,24.27
2022-11-23T22:54:58.187Z,23.13
2022-11-23T23:00:03.708Z,22.67
2022-11-23T23:05:09.877Z,22.77
2022-11-23T23:10:15.411Z,22.03
2022-11-23T23:15:21.366Z,22.80
2022-11-23T23:20:26.904Z,22.87
2022-11-23T23:25:33.281Z,22.03
2022-11-23T23:30:38.757Z,23.33
2022-11-23T23:35:44.843Z,23.40
2022-11-23T23:40:50.311Z,23.00
2022-11-23T23:46:01.361Z,24.40
2022-11-23T23:51:08.837Z,21.57
2022-11-23T23:56:17.447Z,23.60
